createdAt,value
2019-05-02T00:15:52.811Z,67.13
2019-05-02T00:30:55.175Z,67.28
2019-05-02T00:45:49.147Z,66.94
2019-05-02T01:15:49.466Z,68.04
2019-05-02T01:45:49.235Z,68.33
2019-05-02T02:00:57.072Z,67.93
2019-05-02T02:16:00.286Z,68.05
2019-05-02T02:30:49.649Z,67.61
2019-05-02T03:01:00.375Z,67.35
2019-05-02T03:15:51.565Z,67.05
2019-05-02T03:30:53.859Z,66.86
2019-05-02T03:45:50.729Z,67.00
2019-05-02T04:01:00.377Z,66.88
2019-05-02T04:15:49.266Z,70.79
2019-05-02T04:30:51.086Z,55.10
2019-05-02T05:00:58.021Z,52.12
2019-05-02T05:15:51.833Z,51.84
2019-05-02T05:30:51.886Z,51.06
2019-05-02T05:45:56.614Z,46.74
2019-05-02T06:00:58.390Z,42.79
2019-05-02T06:16:01.657Z,39.75
2019-05-02T06:30:49.437Z,37.30
2019-05-02T06:45:49.395Z,34.64
2019-05-02T07:00:57.544Z,32.80
2019-05-02T07:15:57.335Z,30.22
2019-05-02T07:30:49.660Z,27.97
2019-05-02T07:45:51.711Z,27.11
2019-05-02T08:00:54.986Z,26.12
2019-05-02T08:15:50.777Z,25.44
2019-05-02T08:30:56.720Z,24.40
2019-05-02T08:45:50.213Z,24.04
2019-05-02T09:00:49.353Z,23.77
2019-05-02T09:15:51.454Z,23.89
2019-05-02T09:30:49.155Z,23.08
2019-05-02T09:45:49.007Z,22.96
2019-05-02T10:15:52.778Z,24.15
2019-05-02T10:30:52.516Z,23.51
2019-05-02T10:45:56.701Z,23.26
2019-05-02T11:00:49.613Z,24.38
2019-05-02T11:15:54.333Z,24.03
2019-05-02T11:30:49.674Z,24.56
2019-05-02T11:45:54.180Z,24.54
2019-05-02T12:00:49.776Z,23.51
2019-05-02T12:15:51.777Z,23.21
2019-05-02T12:30:51.743Z,27.94
2019-05-02T12:45:55.817Z,28.84
2019-05-02T13:00:49.104Z,28.07
2019-05-02T13:15:51.883Z,28.22
2019-05-02T13:30:53.730Z,30.50
2019-05-02T14:00:50.209Z,30.55
2019-05-02T14:15:49.295Z,30.80
2019-05-02T14:30:49.297Z,32.15
2019-05-02T14:45:59.860Z,33.07
2019-05-02T15:00:52.867Z,33.11
2019-05-02T15:15:49.489Z,33.21
2019-05-02T15:45:49.476Z,33.91
2019-05-02T16:00:52.043Z,34.66
2019-05-02T16:15:49.709Z,35.57
2019-05-02T16:30:52.604Z,35.75
2019-05-02T16:45:49.511Z,36.88
2019-05-02T17:00:49.753Z,38.88
2019-05-02T17:15:54.941Z,41.12
2019-05-02T17:30:48.749Z,41.77
2019-05-02T18:00:52.341Z,44.32
2019-05-02T18:15:49.158Z,44.77
2019-05-02T18:30:57.219Z,45.25
2019-05-02T18:45:49.065Z,45.72
2019-05-02T19:00:55.679Z,46.30
2019-05-02T19:15:56.977Z,46.68
2019-05-02T19:30:57.253Z,46.43
2019-05-02T20:00:55.357Z,46.89
2019-05-02T20:30:55.576Z,48.97
2019-05-02T20:45:52.615Z,49.86
2019-05-02T21:00:48.760Z,50.72
2019-05-02T21:15:57.843Z,51.20
2019-05-02T22:30:58.510Z,54.24
2019-05-02T23:15:53.522Z,58.98
